Time;durP1;ratioP1;P1;durP2;ratioP2;P2;SDS_P1;SDS_P2;PMS_P1;PMS_P2;Temp;Humidity;BMP_temperature;BMP_pressure;BME280_temperature;BME280_humidity;BME280_pressure;Samples;Min_cycle;Max_cycle;Signal;HPM_P1;HPM_P2
2023/03/24 00:01:03;;;;;;;3.27;1.47;;;18.30;28.10;;;;;;5016876;28;20406;-71
2023/03/24 00:03:29;;;;;;;2.60;1.30;;;18.50;28.00;;;;;;5016115;28;20468;-72
2023/03/24 00:06:03;;;;;;;2.57;1.27;;;18.20;29.10;;;;;;5015839;28;20420;-72
2023/03/24 00:08:33;;;;;;;2.50;1.20;;;18.50;28.20;;;;;;5017099;28;20469;-73
2023/03/24 00:11:03;;;;;;;2.50;1.20;;;18.80;27.10;;;;;;5017388;28;20416;-73
2023/03/24 00:13:31;;;;;;;2.33;1.10;;;19.00;27.60;;;;;;5015173;28;20445;-71
2023/03/24 00:15:57;;;;;;;2.40;1.20;;;19.10;28.30;;;;;;5015687;28;20441;-72
2023/03/24 00:18:24;;;;;;;2.50;1.20;;;18.50;29.00;;;;;;5016795;28;20429;-71
2023/03/24 00:20:57;;;;;;;2.43;1.20;;;18.40;29.60;;;;;;5016270;28;20815;-71
2023/03/24 00:23:31;;;;;;;2.30;1.23;;;18.60;29.60;;;;;;5016595;28;20464;-71
2023/03/24 00:26:07;;;;;;;2.73;1.50;;;18.70;28.90;;;;;;5025531;22;20615;-68
2023/03/24 00:28:35;;;;;;;2.30;1.20;;;18.60;29.10;;;;;;5014135;28;20420;-68
2023/03/24 00:31:03;;;;;;;2.40;1.20;;;18.40;27.90;;;;;;5013855;28;20424;-69
2023/03/24 00:33:34;;;;;;;3.70;1.93;;;18.30;28.10;;;;;;5012599;28;20433;-68
2023/03/24 00:36:01;;;;;;;2.50;1.20;;;18.10;27.40;;;;;;5012383;28;20476;-69
2023/03/24 00:38:28;;;;;;;2.50;1.27;;;18.20;28.30;;;;;;5011909;28;20437;-69
2023/03/24 00:40:54;;;;;;;2.63;1.37;;;18.40;27.20;;;;;;5009108;28;20429;-69
2023/03/24 00:43:20;;;;;;;4.50;2.60;;;18.40;27.20;;;;;;5012441;28;20491;-69
2023/03/24 00:45:46;;;;;;;2.50;1.20;;;18.30;27.30;;;;;;5005246;28;20505;-69
2023/03/24 00:48:18;;;;;;;2.40;1.20;;;18.30;27.50;;;;;;5004341;28;20442;-69
2023/03/24 00:50:46;;;;;;;2.60;1.30;;;18.20;26.70;;;;;;5005373;28;20428;-69
2023/03/24 00:53:16;;;;;;;2.53;1.27;;;18.30;26.80;;;;;;5012501;28;20439;-69
2023/03/24 00:55:45;;;;;;;2.40;1.10;;;18.30;26.80;;;;;;5005507;28;20959;-69
2023/03/24 00:58:16;;;;;;;2.40;1.10;;;18.10;27.10;;;;;;5011622;28;20438;-69
2023/03/24 01:00:46;;;;;;;2.70;1.40;;;17.80;28.00;;;;;;5012321;28;20447;-68
2023/03/24 01:03:12;;;;;;;2.43;1.13;;;17.60;28.10;;;;;;5008513;28;20488;-69
2023/03/24 01:05:38;;;;;;;2.50;1.20;;;17.80;27.40;;;;;;5013643;28;20432;-69
2023/03/24 01:08:06;;;;;;;2.50;1.20;;;17.90;27.50;;;;;;5006502;28;20424;-69
2023/03/24 01:10:41;;;;;;;2.50;1.30;;;17.70;27.90;;;;;;5006259;28;20442;-69
2023/03/24 01:13:09;;;;;;;2.70;1.40;;;17.50;28.00;;;;;;5019406;28;20435;-69
2023/03/24 01:15:35;;;;;;;2.60;1.33;;;17.80;27.20;;;;;;5013521;28;20492;-69
2023/03/24 01:18:01;;;;;;;2.57;1.30;;;17.60;27.80;;;;;;5011542;28;20477;-69
2023/03/24 01:20:32;;;;;;;2.47;1.20;;;17.80;27.40;;;;;;5001690;28;20969;-68
2023/03/24 01:22:59;;;;;;;3.10;1.50;;;17.50;28.10;;;;;;5013656;28;20457;-68
2023/03/24 01:25:24;;;;;;;2.67;1.40;;;17.60;28.00;;;;;;5012972;28;20428;-69
2023/03/24 01:27:51;;;;;;;2.50;1.23;;;17.50;28.00;;;;;;5012831;28;20412;-69
2023/03/24 01:30:22;;;;;;;2.60;1.30;;;17.60;27.50;;;;;;4991587;28;20184;-69
2023/03/24 01:32:47;;;;;;;2.60;1.30;;;17.40;28.20;;;;;;5009894;28;20519;-68
2023/03/24 01:35:13;;;;;;;5.33;1.50;;;17.60;27.70;;;;;;5009221;28;20542;-69
2023/03/24 01:37:39;;;;;;;2.50;1.20;;;17.60;27.70;;;;;;5002183;28;20212;-69
2023/03/24 01:40:09;;;;;;;2.60;1.30;;;17.70;27.60;;;;;;5005054;28;20947;-69
2023/03/24 01:42:37;;;;;;;2.57;1.27;;;17.60;27.50;;;;;;5001526;28;20469;-69
2023/03/24 01:45:37;;;;;;;2.50;1.20;;;17.80;27.30;;;;;;5015484;28;20923;-69
2023/03/24 01:48:07;;;;;;;2.60;1.30;;;17.90;27.10;;;;;;5011318;28;20432;-69
2023/03/24 01:50:33;;;;;;;2.90;1.53;;;18.00;27.00;;;;;;5000706;28;20416;-69
2023/03/24 01:53:00;;;;;;;2.70;1.40;;;17.80;27.20;;;;;;4992448;28;20419;-69
2023/03/24 01:55:28;;;;;;;2.90;1.50;;;18.00;27.00;;;;;;5010719;28;20504;-69
2023/03/24 01:57:59;;;;;;;2.60;1.30;;;18.10;26.60;;;;;;5007350;28;20422;-69
2023/03/24 02:00:25;;;;;;;2.60;1.30;;;18.20;26.60;;;;;;4992969;28;20513;-69
2023/03/24 02:02:57;;;;;;;2.60;1.30;;;18.20;26.50;;;;;;4992564;28;20523;-69
2023/03/24 02:05:30;;;;;;;2.77;1.40;;;18.10;26.40;;;;;;5005535;28;20459;-69
2023/03/24 02:08:04;;;;;;;3.00;1.50;;;18.10;26.30;;;;;;5004365;28;20397;-69
2023/03/24 02:10:32;;;;;;;2.40;1.20;;;17.90;27.20;;;;;;5012517;28;20398;-69
2023/03/24 02:12:57;;;;;;;2.50;1.20;;;18.00;27.00;;;;;;5014019;28;20534;-69
2023/03/24 02:15:27;;;;;;;2.50;1.10;;;17.70;26.80;;;;;;5011662;28;20977;-69
2023/03/24 02:17:57;;;;;;;2.80;1.47;;;17.70;27.40;;;;;;5006664;28;20191;-69
2023/03/24 02:20:32;;;;;;;2.60;1.30;;;18.20;26.20;;;;;;5015615;28;20429;-69
2023/03/24 02:23:16;;;;;;;2.50;1.20;;;18.20;26.30;;;;;;5010625;28;20471;-69
2023/03/24 02:26:20;;;;;;;2.90;1.43;;;18.20;26.10;;;;;;5002698;28;20463;-69
2023/03/24 02:28:58;;;;;;;2.50;1.20;;;18.20;26.50;;;;;;5010817;28;20502;-69
2023/03/24 02:31:56;;;;;;;2.60;1.30;;;17.90;26.60;;;;;;5011872;28;20426;-69
2023/03/24 02:34:43;;;;;;;2.60;1.30;;;17.70;27.10;;;;;;5010656;28;20422;-69
2023/03/24 02:37:17;;;;;;;2.63;1.30;;;17.90;27.40;;;;;;5011372;28;20537;-69
2023/03/24 02:39:58;;;;;;;2.60;1.20;;;18.40;26.60;;;;;;5011865;28;20420;-69
2023/03/24 02:42:55;;;;;;;2.60;1.27;;;18.00;26.50;;;;;;5017472;28;20461;-69
2023/03/24 02:46:02;;;;;;;2.70;1.30;;;17.90;26.90;;;;;;5002055;28;20488;-69
2023/03/24 02:48:40;;;;;;;2.67;1.37;;;17.90;26.90;;;;;;5010442;28;20546;-69
2023/03/24 02:51:21;;;;;;;4.90;1.73;;;18.20;26.20;;;;;;5023625;28;20416;-69
2023/03/24 02:53:52;;;;;;;2.80;1.30;;;17.90;26.60;;;;;;5011317;28;20398;-69
2023/03/24 02:56:28;;;;;;;2.60;1.20;;;17.60;27.20;;;;;;5011497;28;20479;-69
2023/03/24 02:59:01;;;;;;;2.50;1.20;;;17.70;27.50;;;;;;5015399;28;20489;-69
2023/03/24 03:01:34;;;;;;;2.60;1.30;;;17.70;27.50;;;;;;5007821;28;20432;-69
2023/03/24 03:04:07;;;;;;;2.70;1.40;;;17.70;27.20;;;;;;5011305;28;20854;-69
2023/03/24 03:06:38;;;;;;;2.53;1.30;;;17.80;27.40;;;;;;5011589;28;20848;-69
2023/03/24 03:09:08;;;;;;;2.60;1.37;;;17.70;27.30;;;;;;5014951;28;20901;-69
2023/03/24 03:11:36;;;;;;;2.70;1.30;;;17.50;27.70;;;;;;5010696;28;20432;-69
2023/03/24 03:14:06;;;;;;;2.60;1.30;;;17.60;27.20;;;;;;4996997;28;20416;-69
2023/03/24 03:16:37;;;;;;;2.60;1.30;;;17.60;27.20;;;;;;4992124;28;20794;-69
2023/03/24 03:19:09;;;;;;;2.60;1.20;;;17.60;27.30;;;;;;5000363;28;20531;-69
2023/03/24 03:21:39;;;;;;;2.60;1.27;;;17.90;27.00;;;;;;5010936;28;20429;-69
2023/03/24 03:24:09;;;;;;;2.60;1.23;;;17.90;27.10;;;;;;5011107;28;20466;-69
2023/03/24 03:26:35;;;;;;;2.60;1.30;;;18.00;26.80;;;;;;5011193;28;20811;-69
2023/03/24 03:29:10;;;;;;;2.60;1.30;;;17.80;27.10;;;;;;5009444;28;20434;-69
2023/03/24 03:31:51;;;;;;;3.30;1.60;;;17.90;27.30;;;;;;5009684;28;21019;-69
2023/03/24 03:34:41;;;;;;;2.63;1.40;;;18.10;26.40;;;;;;5011122;28;20400;-69
2023/03/24 03:37:28;;;;;;;2.87;1.37;;;18.20;26.00;;;;;;5010348;28;20963;-69
2023/03/24 03:40:08;;;;;;;2.60;1.30;;;18.20;26.10;;;;;;5011639;28;20433;-69
2023/03/24 03:42:34;;;;;;;2.60;1.30;;;18.10;26.20;;;;;;5009288;28;20826;-69
2023/03/24 03:45:00;;;;;;;2.70;1.33;;;17.90;26.90;;;;;;5004863;28;20496;-69
2023/03/24 03:47:25;;;;;;;2.70;1.30;;;18.20;26.00;;;;;;5011422;28;20415;-69
2023/03/24 03:49:51;;;;;;;3.00;1.63;;;18.40;25.60;;;;;;5011324;28;20410;-69
2023/03/24 03:52:17;;;;;;;2.80;1.37;;;18.60;25.00;;;;;;5007641;28;20182;-69
2023/03/24 03:54:44;;;;;;;2.90;1.40;;;18.60;25.00;;;;;;5005987;28;20192;-69
2023/03/24 03:57:12;;;;;;;3.13;1.33;;;18.50;24.90;;;;;;5007867;28;20967;-69
2023/03/24 03:59:38;;;;;;;2.60;1.23;;;18.70;25.00;;;;;;5011233;28;20420;-69
2023/03/24 04:02:39;;;;;;;2.80;1.33;;;18.90;24.90;;;;;;5002975;28;20485;-69
2023/03/24 04:05:13;;;;;;;2.70;1.30;;;18.60;24.90;;;;;;4995151;28;20418;-69
2023/03/24 04:08:30;;;;;;;2.70;1.20;;;18.70;24.90;;;;;;5009934;28;20427;-69
2023/03/24 04:11:32;;;;;;;3.00;1.50;;;18.50;24.90;;;;;;4953651;28;20563;-70
2023/03/24 04:14:04;;;;;;;2.80;1.30;;;18.70;25.00;;;;;;4947250;28;20927;-69
2023/03/24 04:16:54;;;;;;;2.90;1.40;;;19.00;24.70;;;;;;4951682;28;20497;-69
2023/03/24 04:19:19;;;;;;;2.80;1.20;;;19.20;25.20;;;;;;4962239;28;20423;-69
2023/03/24 04:22:03;;;;;;;2.80;1.20;;;19.20;24.50;;;;;;4973030;28;20416;-69
2023/03/24 04:24:34;;;;;;;2.80;1.20;;;19.20;24.80;;;;;;4954766;28;20190;-70
2023/03/24 04:27:08;;;;;;;2.90;1.30;;;19.40;24.30;;;;;;4965575;28;20450;-69
2023/03/24 04:29:53;;;;;;;3.10;1.30;;;19.60;24.00;;;;;;4961057;28;20414;-69
2023/03/24 04:32:45;;;;;;;2.90;1.30;;;19.50;24.10;;;;;;4952677;29;20395;-69
2023/03/24 04:35:19;;;;;;;2.70;1.10;;;19.50;24.00;;;;;;4951210;28;20946;-69
2023/03/24 04:37:46;;;;;;;2.80;1.33;;;19.60;24.20;;;;;;4958669;28;21034;-69
2023/03/24 04:40:13;;;;;;;3.00;1.40;;;19.50;24.30;;;;;;4955827;28;20458;-69
2023/03/24 04:42:52;;;;;;;2.80;1.20;;;19.40;24.40;;;;;;4958277;28;20467;-69
2023/03/24 04:45:18;;;;;;;2.90;1.30;;;19.60;24.10;;;;;;4956281;28;20488;-69
2023/03/24 04:47:49;;;;;;;3.20;1.40;;;19.80;23.80;;;;;;5009046;28;20433;-69
2023/03/24 04:50:29;;;;;;;2.83;1.20;;;19.70;24.40;;;;;;5009611;28;20444;-69
2023/03/24 04:52:55;;;;;;;2.80;1.20;;;19.70;24.80;;;;;;5008983;28;20502;-69
2023/03/24 04:55:38;;;;;;;2.90;1.23;;;19.80;23.90;;;;;;4993352;28;21040;-69
2023/03/24 04:58:04;;;;;;;3.00;1.30;;;19.90;23.90;;;;;;5006783;28;20469;-69
2023/03/24 05:00:30;;;;;;;4.10;1.30;;;19.90;23.80;;;;;;5013702;28;20483;-69
2023/03/24 05:02:56;;;;;;;2.80;1.30;;;19.80;24.00;;;;;;4998543;28;20461;-69
2023/03/24 05:05:22;;;;;;;2.80;1.20;;;19.40;24.40;;;;;;4995573;28;20455;-69
2023/03/24 05:07:48;;;;;;;2.97;1.37;;;19.40;24.60;;;;;;4997785;28;20244;-69
2023/03/24 05:10:15;;;;;;;2.70;1.10;;;19.40;24.80;;;;;;5012370;28;20177;-69
2023/03/24 05:12:40;;;;;;;2.90;1.30;;;19.20;25.40;;;;;;5012705;28;20432;-70
2023/03/24 05:15:06;;;;;;;2.90;1.30;;;18.90;25.20;;;;;;5017143;28;20999;-69
2023/03/24 05:17:32;;;;;;;2.80;1.20;;;18.70;25.80;;;;;;5008086;28;20182;-69
2023/03/24 05:19:57;;;;;;;2.90;1.30;;;18.50;26.10;;;;;;5012493;28;20681;-69
2023/03/24 05:22:23;;;;;;;2.80;1.23;;;18.30;27.40;;;;;;4994149;28;20249;-69
2023/03/24 05:24:49;;;;;;;2.70;1.20;;;18.50;26.60;;;;;;4992604;28;20233;-69
2023/03/24 05:27:14;;;;;;;2.70;1.10;;;18.20;28.10;;;;;;4963199;28;1074468;-69
2023/03/24 05:29:40;;;;;;;2.77;1.30;;;17.70;30.90;;;;;;5011323;28;20816;-69
2023/03/24 05:32:05;;;;;;;2.77;1.30;;;17.40;30.80;;;;;;5006020;28;20177;-69
2023/03/24 05:34:31;;;;;;;2.70;1.30;;;16.90;32.80;;;;;;5005122;28;20787;-68
2023/03/24 05:36:57;;;;;;;2.70;1.30;;;16.40;35.30;;;;;;5010968;28;20612;-68
2023/03/24 05:39:22;;;;;;;2.60;1.30;;;16.60;36.30;;;;;;5011970;28;20230;-68
2023/03/24 05:41:48;;;;;;;2.67;1.37;;;16.60;35.90;;;;;;5012033;28;20190;-68
2023/03/24 05:44:13;;;;;;;2.60;1.30;;;16.40;37.50;;;;;;5015188;28;20228;-68
2023/03/24 05:46:40;;;;;;;2.57;1.47;;;16.40;39.80;;;;;;5012028;28;20602;-68
2023/03/24 05:49:05;;;;;;;2.57;1.30;;;16.10;41.60;;;;;;5010763;28;20183;-68
2023/03/24 05:51:31;;;;;;;2.30;1.23;;;16.40;42.70;;;;;;5010984;28;20433;-68
2023/03/24 05:53:56;;;;;;;2.20;1.20;;;15.90;45.00;;;;;;5018214;28;20178;-68
2023/03/24 05:56:22;;;;;;;2.40;1.30;;;15.90;47.20;;;;;;5007764;28;20287;-68
2023/03/24 05:58:48;;;;;;;2.20;1.20;;;16.20;44.70;;;;;;5010115;28;20566;-68
2023/03/24 06:01:17;;;;;;;2.20;1.30;;;16.40;43.90;;;;;;5010252;28;20189;-68
2023/03/24 06:03:42;;;;;;;2.20;1.30;;;16.70;44.00;;;;;;5004346;28;20197;-68
2023/03/24 06:06:15;;;;;;;2.77;1.43;;;17.00;44.50;;;;;;5017587;28;20981;-68
2023/03/24 06:08:43;;;;;;;2.10;1.20;;;17.20;41.00;;;;;;5012987;28;20180;-68
2023/03/24 06:11:10;;;;;;;2.20;1.30;;;17.20;41.50;;;;;;5009524;28;20444;-68
2023/03/24 06:13:36;;;;;;;2.00;1.20;;;17.60;41.00;;;;;;5005767;28;20461;-74
2023/03/24 06:16:02;;;;;;;2.07;1.20;;;17.50;39.30;;;;;;5012435;28;20443;-73
2023/03/24 06:18:29;;;;;;;2.10;1.30;;;17.40;40.80;;;;;;5015519;28;20531;-73
2023/03/24 06:20:59;;;;;;;2.30;1.50;;;17.50;39.90;;;;;;5012026;28;20235;-73
2023/03/24 06:23:26;;;;;;;2.10;1.27;;;17.40;42.10;;;;;;4994692;28;20472;-73
2023/03/24 06:25:57;;;;;;;2.00;1.20;;;17.70;39.80;;;;;;5037387;22;20501;-73
2023/03/24 06:28:25;;;;;;;2.00;1.20;;;17.70;39.50;;;;;;5047956;28;20797;-70
2023/03/24 06:30:50;;;;;;;2.00;1.10;;;17.70;39.90;;;;;;5051982;28;20412;-71
2023/03/24 06:33:16;;;;;;;2.10;1.30;;;17.70;39.50;;;;;;5049312;28;21019;-71
2023/03/24 06:35:42;;;;;;;2.00;1.23;;;17.80;39.60;;;;;;5048230;28;20191;-71
2023/03/24 06:38:07;;;;;;;2.10;1.40;;;17.70;41.70;;;;;;5050345;28;20684;-71
2023/03/24 06:40:33;;;;;;;2.10;1.50;;;17.40;39.80;;;;;;5048939;28;20184;-70
2023/03/24 06:42:59;;;;;;;2.03;1.30;;;17.60;39.40;;;;;;5038922;28;20254;-71
2023/03/24 06:45:25;;;;;;;2.20;1.40;;;17.50;39.30;;;;;;5048850;28;20175;-71
2023/03/24 06:47:55;;;;;;;2.00;1.23;;;17.30;39.10;;;;;;5051885;28;20429;-71
2023/03/24 06:50:21;;;;;;;2.20;1.40;;;17.10;42.50;;;;;;5051062;28;20426;-68
2023/03/24 06:52:47;;;;;;;2.00;1.27;;;17.10;42.60;;;;;;5049878;28;20439;-69
2023/03/24 06:55:13;;;;;;;2.10;1.33;;;17.30;40.60;;;;;;5051693;28;20494;-69
2023/03/24 06:57:38;;;;;;;2.20;1.37;;;17.50;39.30;;;;;;5049802;28;20205;-69
2023/03/24 07:00:05;;;;;;;2.10;1.40;;;17.30;39.40;;;;;;5047511;28;20220;-69
2023/03/24 07:02:34;;;;;;;1.90;1.20;;;17.40;42.10;;;;;;5051054;28;20197;-68
2023/03/24 07:05:04;;;;;;;1.97;1.30;;;17.10;40.50;;;;;;5051772;28;20405;-69
2023/03/24 07:07:31;;;;;;;2.00;1.33;;;17.30;39.80;;;;;;5050531;28;20461;-69
2023/03/24 07:09:56;;;;;;;2.70;1.40;;;17.20;39.10;;;;;;5046457;28;20459;-68
2023/03/24 07:12:22;;;;;;;1.90;1.20;;;17.00;40.90;;;;;;5044905;28;20465;-69
2023/03/24 07:14:48;;;;;;;2.13;1.40;;;16.80;41.90;;;;;;5050330;28;20556;-69
2023/03/24 07:17:13;;;;;;;2.30;1.50;;;16.50;42.60;;;;;;5048213;28;20210;-70
2023/03/24 07:19:39;;;;;;;2.13;1.33;;;16.70;43.50;;;;;;5051467;28;20697;-69
2023/03/24 07:22:07;;;;;;;2.00;1.20;;;16.80;43.20;;;;;;5048428;28;20185;-69
2023/03/24 07:24:34;;;;;;;2.00;1.30;;;16.90;43.20;;;;;;5050897;28;20180;-70
2023/03/24 07:27:00;;;;;;;1.97;1.20;;;17.10;43.70;;;;;;5049544;28;20465;-69
2023/03/24 07:29:25;;;;;;;2.20;1.30;;;16.80;43.60;;;;;;5050418;28;20433;-69
2023/03/24 07:31:52;;;;;;;2.00;1.30;;;16.70;45.10;;;;;;5049419;28;20186;-69
2023/03/24 07:34:17;;;;;;;2.00;1.30;;;17.10;45.60;;;;;;5050085;28;20176;-69
2023/03/24 07:36:43;;;;;;;2.00;1.30;;;17.20;45.30;;;;;;5050254;28;20543;-70
2023/03/24 07:39:09;;;;;;;1.90;1.20;;;17.10;44.30;;;;;;5051137;28;20171;-70
2023/03/24 07:41:35;;;;;;;2.00;1.30;;;17.00;46.50;;;;;;5050243;28;20599;-69
2023/03/24 07:44:00;;;;;;;2.40;1.50;;;17.30;47.60;;;;;;5044688;28;20465;-69
2023/03/24 07:46:26;;;;;;;2.00;1.30;;;17.50;45.00;;;;;;5050776;28;20855;-69
2023/03/24 07:48:52;;;;;;;1.90;1.20;;;17.40;44.50;;;;;;5053432;28;20186;-69
2023/03/24 07:51:18;;;;;;;1.93;1.20;;;17.60;46.00;;;;;;5055010;28;20244;-69
2023/03/24 07:53:46;;;;;;;2.27;1.43;;;17.90;45.30;;;;;;5052292;28;20179;-69
2023/03/24 07:56:12;;;;;;;2.00;1.30;;;17.80;45.40;;;;;;5054660;28;20434;-69
2023/03/24 07:58:38;;;;;;;2.10;1.40;;;17.80;46.40;;;;;;5051638;28;20430;-69
2023/03/24 08:01:09;;;;;;;1.80;1.17;;;17.90;45.90;;;;;;5055157;28;20824;-69
2023/03/24 08:03:36;;;;;;;1.90;1.30;;;18.00;47.30;;;;;;5050998;28;20468;-69
2023/03/24 08:06:03;;;;;;;1.83;1.20;;;18.10;47.50;;;;;;5048509;28;20458;-69
2023/03/24 08:08:29;;;;;;;1.90;1.30;;;18.20;46.30;;;;;;5052859;28;20438;-71
2023/03/24 08:10:54;;;;;;;1.90;1.30;;;18.10;46.80;;;;;;5050189;28;20442;-71
2023/03/24 08:13:20;;;;;;;2.00;1.40;;;18.10;45.60;;;;;;5050052;28;20441;-70
2023/03/24 08:15:45;;;;;;;1.77;1.13;;;18.00;44.30;;;;;;5053375;28;20180;-70
2023/03/24 08:18:11;;;;;;;1.90;1.30;;;18.20;46.50;;;;;;5048696;28;20188;-69
2023/03/24 08:20:37;;;;;;;1.90;1.30;;;18.40;43.60;;;;;;5054229;28;20176;-69
2023/03/24 08:23:03;;;;;;;2.00;1.40;;;17.60;48.10;;;;;;5050509;28;20291;-70
2023/03/24 08:25:29;;;;;;;1.80;1.20;;;17.80;47.10;;;;;;5051567;28;20643;-69
2023/03/24 08:27:55;;;;;;;2.77;1.93;;;18.10;45.60;;;;;;5054200;28;20517;-69
2023/03/24 08:30:23;;;;;;;2.10;1.50;;;18.40;46.00;;;;;;5054336;28;20499;-69
2023/03/24 08:32:52;;;;;;;1.80;1.20;;;18.30;46.30;;;;;;5054112;28;20407;-69
2023/03/24 08:35:21;;;;;;;2.00;1.30;;;18.20;46.70;;;;;;5052219;28;20443;-69
2023/03/24 08:37:46;;;;;;;1.80;1.20;;;18.30;44.60;;;;;;5053174;28;20450;-69
2023/03/24 08:40:17;;;;;;;1.80;1.20;;;17.70;46.70;;;;;;5054162;28;20937;-69
2023/03/24 08:42:46;;;;;;;2.20;1.43;;;17.60;48.60;;;;;;5053868;28;20196;-69
2023/03/24 08:45:12;;;;;;;2.43;1.40;;;17.40;49.10;;;;;;5054225;28;20407;-69
2023/03/24 08:47:39;;;;;;;1.80;1.20;;;17.20;50.30;;;;;;5051387;28;20957;-69
2023/03/24 08:50:07;;;;;;;1.80;1.20;;;17.00;54.10;;;;;;5053657;28;20413;-69
2023/03/24 08:52:33;;;;;;;1.80;1.20;;;16.40;57.80;;;;;;5053643;28;20430;-69
2023/03/24 08:54:58;;;;;;;1.70;1.10;;;16.50;56.20;;;;;;5053818;28;20402;-69
2023/03/24 08:57:24;;;;;;;2.90;1.30;;;16.70;56.80;;;;;;5051393;28;20199;-69
2023/03/24 08:59:50;;;;;;;1.90;1.23;;;16.70;54.80;;;;;;5053440;28;20606;-70
2023/03/24 09:02:15;;;;;;;1.70;1.10;;;16.60;53.10;;;;;;5053928;28;20205;-69
2023/03/24 09:04:41;;;;;;;1.90;1.40;;;16.70;54.00;;;;;;5051448;28;20187;-69
2023/03/24 09:07:08;;;;;;;1.90;1.20;;;16.40;55.20;;;;;;5051511;28;20237;-69
2023/03/24 09:09:34;;;;;;;2.30;1.50;;;16.70;50.10;;;;;;5053575;28;20437;-69
2023/03/24 09:12:00;;;;;;;1.80;1.30;;;16.80;47.90;;;;;;5053347;28;20945;-69
2023/03/24 09:14:26;;;;;;;1.80;1.30;;;16.80;44.70;;;;;;5051326;28;20407;-69
2023/03/24 09:16:51;;;;;;;1.83;1.30;;;16.90;44.90;;;;;;5052689;28;20207;-69
2023/03/24 09:19:17;;;;;;;1.80;1.20;;;16.70;45.40;;;;;;5053322;28;20173;-69
2023/03/24 09:21:44;;;;;;;2.57;1.40;;;17.20;45.40;;;;;;5053170;28;20588;-69
2023/03/24 09:24:10;;;;;;;2.20;1.50;;;17.70;43.10;;;;;;5051524;28;20456;-69
2023/03/24 09:26:36;;;;;;;1.80;1.23;;;17.70;40.30;;;;;;5053098;28;20466;-69
2023/03/24 09:29:02;;;;;;;1.80;1.20;;;17.20;42.10;;;;;;5053310;28;20430;-70
2023/03/24 09:31:28;;;;;;;2.03;1.40;;;17.60;40.10;;;;;;5053165;28;20164;-70
2023/03/24 09:33:53;;;;;;;1.80;1.20;;;17.90;42.30;;;;;;5050953;28;20519;-70
2023/03/24 09:36:19;;;;;;;1.90;1.40;;;18.00;39.20;;;;;;5052112;28;20694;-70
2023/03/24 09:38:45;;;;;;;1.90;1.20;;;17.90;40.00;;;;;;5052912;28;20167;-70
2023/03/24 09:41:17;;;;;;;2.00;1.30;;;18.10;39.90;;;;;;5053063;28;20412;-70
2023/03/24 09:43:50;;;;;;;1.90;1.20;;;18.00;38.10;;;;;;5051024;28;20298;-70
2023/03/24 09:46:45;;;;;;;2.00;1.20;;;17.90;37.60;;;;;;5048427;28;20448;-70
2023/03/24 09:49:16;;;;;;;1.90;1.20;;;17.70;38.50;;;;;;5043980;28;20958;-70
2023/03/24 09:51:43;;;;;;;2.00;1.30;;;17.50;37.00;;;;;;5040508;28;20438;-70
2023/03/24 09:54:30;;;;;;;2.03;1.30;;;17.00;38.90;;;;;;5046792;28;20485;-70
2023/03/24 09:56:56;;;;;;;2.00;1.20;;;17.20;38.80;;;;;;5048593;28;20454;-70
2023/03/24 09:59:30;;;;;;;2.10;1.30;;;17.10;38.40;;;;;;5048097;28;20449;-70
2023/03/24 10:01:57;;;;;;;2.00;1.23;;;17.20;39.10;;;;;;5047259;28;20434;-70
2023/03/24 10:04:26;;;;;;;2.20;1.40;;;16.90;38.80;;;;;;5051366;28;20478;-69
2023/03/24 10:06:59;;;;;;;1.90;1.10;;;17.20;39.00;;;;;;5043755;28;20808;-70
2023/03/24 10:09:29;;;;;;;2.20;1.30;;;17.70;37.80;;;;;;5047515;28;20448;-70
2023/03/24 10:11:58;;;;;;;2.30;1.33;;;17.80;36.30;;;;;;5051579;28;20425;-70
2023/03/24 10:14:45;;;;;;;2.37;1.30;;;17.60;35.60;;;;;;5047690;28;20434;-70
2023/03/24 10:17:38;;;;;;;2.30;1.30;;;17.70;35.70;;;;;;5047989;28;20964;-70
2023/03/24 10:20:14;;;;;;;2.30;1.30;;;18.10;35.50;;;;;;5043872;28;20454;-70
2023/03/24 10:22:59;;;;;;;2.50;1.30;;;18.50;35.00;;;;;;5050554;28;20458;-70
2023/03/24 10:25:38;;;;;;;2.40;1.20;;;18.50;33.90;;;;;;5043502;28;20804;-70
2023/03/24 10:28:26;;;;;;;2.53;1.20;;;18.70;34.00;;;;;;5048020;28;20438;-70
2023/03/24 10:30:56;;;;;;;2.40;1.10;;;18.60;33.80;;;;;;5051770;28;20412;-70
2023/03/24 10:33:21;;;;;;;2.57;1.20;;;18.20;34.90;;;;;;5051779;28;20404;-70
2023/03/24 10:36:05;;;;;;;2.67;1.20;;;18.50;34.30;;;;;;5051179;28;20418;-70
2023/03/24 10:38:31;;;;;;;2.90;1.30;;;18.80;33.30;;;;;;5049776;28;20500;-70
2023/03/24 10:40:57;;;;;;;2.87;1.33;;;18.40;34.30;;;;;;5049765;28;20963;-70
2023/03/24 10:43:24;;;;;;;2.87;1.30;;;18.80;33.40;;;;;;5050639;28;20229;-70
2023/03/24 10:45:55;;;;;;;3.20;1.50;;;18.80;32.50;;;;;;5051321;28;20418;-70
2023/03/24 10:48:43;;;;;;;2.77;1.30;;;18.90;32.80;;;;;;5050391;28;20427;-70
2023/03/24 10:51:16;;;;;;;2.70;1.23;;;18.00;33.70;;;;;;5043662;28;20412;-70
2023/03/24 10:53:46;;;;;;;2.80;1.40;;;17.70;35.30;;;;;;5049874;28;20417;-70
2023/03/24 10:56:16;;;;;;;2.60;1.20;;;17.70;35.90;;;;;;5050452;28;20458;-70
2023/03/24 10:58:43;;;;;;;2.63;1.20;;;17.80;36.30;;;;;;5049473;28;20500;-70
2023/03/24 11:01:23;;;;;;;2.67;1.23;;;18.50;34.70;;;;;;5051288;28;20418;-70
2023/03/24 11:03:50;;;;;;;2.77;1.30;;;18.70;33.50;;;;;;5051566;28;20984;-69
2023/03/24 11:06:19;;;;;;;2.67;1.20;;;18.10;35.50;;;;;;5051217;28;20448;-69
2023/03/24 11:08:45;;;;;;;2.63;1.30;;;18.10;35.50;;;;;;5049818;28;20432;-70
2023/03/24 11:11:30;;;;;;;2.60;1.20;;;18.00;36.00;;;;;;5049235;28;20442;-68
2023/03/24 11:14:01;;;;;;;2.60;1.30;;;17.10;38.10;;;;;;5045361;28;20413;-68
2023/03/24 11:16:35;;;;;;;2.40;1.10;;;17.10;38.00;;;;;;5051393;28;20430;-69
2023/03/24 11:19:16;;;;;;;2.50;1.23;;;17.60;37.60;;;;;;5051794;28;20403;-69
2023/03/24 11:21:42;;;;;;;2.50;1.23;;;17.60;35.60;;;;;;5051573;28;20503;-69
2023/03/24 11:24:15;;;;;;;2.50;1.20;;;17.60;36.50;;;;;;5054995;28;20461;-69
2023/03/24 11:26:54;;;;;;;2.50;1.20;;;17.70;36.60;;;;;;5055034;28;20450;-69
2023/03/24 11:29:24;;;;;;;2.60;1.33;;;17.50;36.50;;;;;;5055603;28;20417;-69
2023/03/24 11:31:55;;;;;;;2.73;1.30;;;17.80;34.70;;;;;;5053833;28;20438;-69
2023/03/24 11:34:23;;;;;;;2.80;1.30;;;18.20;34.80;;;;;;5053772;28;20821;-69
2023/03/24 11:36:49;;;;;;;2.87;1.20;;;18.80;32.50;;;;;;5054501;28;20442;-69
2023/03/24 11:39:16;;;;;;;2.83;1.20;;;19.30;30.70;;;;;;5053930;28;20798;-69
2023/03/24 11:42:11;;;;;;;2.90;1.10;;;18.80;32.10;;;;;;5047014;28;20183;-69
2023/03/24 11:44:45;;;;;;;2.90;1.10;;;19.40;30.30;;;;;;5055040;28;20401;-69
2023/03/24 11:47:36;;;;;;;3.00;1.10;;;19.20;30.60;;;;;;5054976;28;20448;-69
2023/03/24 11:50:10;;;;;;;3.10;1.27;;;19.40;29.90;;;;;;5052649;28;20466;-69
2023/03/24 11:52:54;;;;;;;3.00;1.20;;;18.80;30.60;;;;;;5053619;28;20437;-69
2023/03/24 11:55:42;;;;;;;3.00;1.20;;;18.90;30.40;;;;;;5055103;28;20402;-69
2023/03/24 11:58:24;;;;;;;3.00;1.30;;;18.90;30.40;;;;;;5054871;28;20771;-69
2023/03/24 12:01:00;;;;;;;3.40;1.30;;;18.00;31.80;;;;;;5053143;28;20435;-69
2023/03/24 12:03:52;;;;;;;2.80;1.20;;;18.00;32.20;;;;;;5054359;28;20458;-69
2023/03/24 12:07:06;;;;;;;2.80;1.20;;;18.00;32.70;;;;;;5053821;28;21066;-69
2023/03/24 12:09:48;;;;;;;2.80;1.20;;;17.70;33.10;;;;;;4964175;28;20418;-69
2023/03/24 12:12:43;;;;;;;2.70;1.23;;;17.70;33.00;;;;;;4972385;28;20398;-69
2023/03/24 12:15:11;;;;;;;2.60;1.20;;;17.80;33.00;;;;;;4955455;28;20466;-69
2023/03/24 12:17:46;;;;;;;3.30;1.33;;;18.20;32.30;;;;;;4967654;28;20456;-69
2023/03/24 12:20:21;;;;;;;2.70;1.20;;;18.80;30.70;;;;;;4973296;28;20781;-70
2023/03/24 12:22:55;;;;;;;6.93;1.63;;;18.30;31.70;;;;;;4955706;28;20478;-69
2023/03/24 12:25:56;;;;;;;2.60;1.20;;;17.70;32.80;;;;;;4972528;28;20429;-69
2023/03/24 12:28:47;;;;;;;2.50;1.20;;;17.70;32.70;;;;;;4932214;29;20435;-69
2023/03/24 12:31:21;;;;;;;2.70;1.30;;;17.40;33.00;;;;;;4927204;29;20498;-69
2023/03/24 12:34:22;;;;;;;2.70;1.20;;;17.40;33.30;;;;;;4920559;29;20434;-69
2023/03/24 12:37:19;;;;;;;2.47;1.10;;;17.70;33.20;;;;;;4877592;29;20478;-69
2023/03/24 12:39:54;;;;;;;2.63;1.33;;;17.60;33.10;;;;;;4894450;29;20918;-70
2023/03/24 12:42:22;;;;;;;2.70;1.20;;;17.60;33.90;;;;;;4908399;29;20464;-69
2023/03/24 12:45:18;;;;;;;2.50;1.27;;;17.70;32.40;;;;;;4926437;29;20431;-69
2023/03/24 12:47:55;;;;;;;2.73;1.30;;;17.40;32.60;;;;;;4923105;29;20955;-70
2023/03/24 12:50:33;;;;;;;2.80;1.30;;;17.80;32.90;;;;;;4915870;29;20445;-69
2023/03/24 12:53:22;;;;;;;2.80;1.20;;;18.30;30.50;;;;;;4915967;29;20417;-69
2023/03/24 12:55:53;;;;;;;3.20;1.30;;;19.20;29.50;;;;;;4915127;29;20800;-69
2023/03/24 12:58:24;;;;;;;3.13;1.20;;;19.90;27.90;;;;;;4996077;22;20586;-76
2023/03/24 13:00:56;;;;;;;3.17;1.20;;;20.60;26.70;;;;;;5039051;28;20825;-76
2023/03/24 13:03:40;;;;;;;3.20;1.30;;;19.70;27.00;;;;;;5044965;28;20546;-76
2023/03/24 13:06:21;;;;;;;3.10;1.17;;;18.90;28.30;;;;;;5054422;28;20399;-76
2023/03/24 13:09:13;;;;;;;3.57;1.30;;;19.40;27.70;;;;;;5032729;28;20451;-75
2023/03/24 13:11:51;;;;;;;3.20;1.30;;;19.70;27.30;;;;;;5018158;28;20421;-76